createdAt,value
2022-08-21T00:07:33.949Z,5.40
2022-08-21T00:15:10.424Z,5.70
2022-08-21T00:22:47.988Z,5.75
2022-08-21T00:30:23.999Z,5.45
2022-08-21T00:37:59.993Z,6.65
2022-08-21T00:45:34.701Z,6.10
2022-08-21T00:53:11.922Z,7.22
2022-08-21T01:00:49.896Z,5.65
2022-08-21T01:08:25.840Z,6.35
2022-08-21T01:16:04.037Z,5.80
2022-08-21T01:23:41.740Z,5.85
2022-08-21T01:31:17.181Z,5.55
2022-08-21T01:38:59.500Z,5.97
2022-08-21T01:46:33.742Z,5.63
2022-08-21T01:54:09.287Z,5.60
2022-08-21T02:01:43.457Z,5.72
2022-08-21T02:09:18.685Z,4.93
2022-08-21T02:16:52.792Z,5.20
2022-08-21T02:24:54.850Z,5.03
2022-08-21T02:32:29.224Z,5.15
2022-08-21T02:40:05.747Z,4.13
2022-08-21T02:47:39.672Z,4.43
2022-08-21T02:55:14.789Z,4.15
2022-08-21T03:02:49.292Z,3.78
2022-08-21T03:10:24.611Z,3.80
2022-08-21T03:17:58.434Z,4.60
2022-08-21T03:25:40.454Z,3.70
2022-08-21T03:33:15.778Z,4.13
2022-08-21T03:40:51.179Z,4.40
2022-08-21T03:48:25.565Z,3.92
2022-08-21T03:56:00.869Z,3.90
2022-08-21T04:03:36.992Z,3.38
2022-08-21T04:11:12.458Z,3.30
2022-08-21T04:18:46.307Z,3.60
2022-08-21T04:26:21.661Z,4.13
2022-08-21T04:33:55.492Z,3.63
2022-08-21T04:41:30.600Z,3.42
2022-08-21T04:49:04.469Z,2.83
2022-08-21T04:56:46.649Z,3.10
2022-08-21T05:04:25.295Z,2.85
2022-08-21T05:12:00.503Z,3.30
2022-08-21T05:19:34.254Z,3.38
2022-08-21T05:27:09.386Z,3.10
2022-08-21T05:34:43.243Z,2.97
2022-08-21T05:42:18.460Z,2.88
2022-08-21T05:49:52.264Z,3.03
2022-08-21T05:57:27.486Z,2.20
2022-08-21T06:05:01.346Z,2.85
2022-08-21T06:12:36.541Z,3.10
2022-08-21T06:20:14.026Z,2.50
2022-08-21T06:27:49.165Z,2.40
2022-08-21T06:35:23.074Z,3.97
2022-08-21T06:43:00.662Z,2.33
2022-08-21T06:50:36.111Z,2.70
2022-08-21T06:58:11.960Z,2.58
2022-08-21T07:05:45.802Z,2.88
2022-08-21T07:13:21.073Z,2.95
2022-08-21T07:20:55.037Z,2.42
2022-08-21T07:28:30.505Z,2.70
2022-08-21T07:36:05.133Z,2.08
2022-08-21T07:43:46.179Z,1.98
2022-08-21T07:51:23.107Z,1.90
2022-08-21T07:58:58.848Z,1.90
2022-08-21T08:06:33.027Z,2.97
2022-08-21T08:14:08.193Z,1.80
2022-08-21T08:21:42.125Z,1.50
2022-08-21T08:29:17.319Z,1.25
2022-08-21T08:36:51.520Z,1.73
2022-08-21T08:44:26.998Z,2.17
2022-08-21T08:52:08.949Z,2.17
2022-08-21T08:59:47.970Z,2.00
2022-08-21T09:07:32.912Z,2.50
2022-08-21T09:15:18.515Z,1.80
2022-08-21T09:23:09.523Z,1.88
2022-08-21T09:30:45.798Z,1.92
2022-08-21T09:38:29.402Z,2.15
2022-08-21T09:46:11.091Z,1.75
2022-08-21T09:53:48.717Z,1.50
2022-08-21T10:01:26.587Z,1.85
2022-08-21T10:09:07.903Z,1.55
2022-08-21T10:16:54.744Z,1.95
2022-08-21T10:24:35.930Z,1.52
2022-08-21T10:32:26.339Z,1.42
2022-08-21T10:40:14.670Z,1.30
2022-08-21T10:47:57.854Z,1.58
2022-08-21T10:55:35.713Z,2.03
2022-08-21T11:03:15.737Z,1.30
2022-08-21T11:10:59.398Z,1.20
2022-08-21T11:18:40.792Z,1.73
2022-08-21T11:26:20.546Z,1.40
2022-08-21T11:34:08.354Z,1.30
2022-08-21T11:41:49.552Z,1.25
2022-08-21T11:49:38.100Z,1.83
2022-08-21T12:05:13.310Z,1.85
2022-08-21T12:12:47.408Z,5.45
2022-08-21T12:20:39.881Z,3.10
2022-08-21T12:28:25.563Z,2.42
2022-08-21T12:36:09.592Z,1.60
2022-08-21T12:43:47.737Z,2.10
2022-08-21T12:51:26.663Z,2.00
2022-08-21T12:59:04.844Z,1.90
2022-08-21T13:06:43.589Z,2.45
2022-08-21T13:14:25.542Z,3.65
2022-08-21T13:22:02.705Z,2.90
2022-08-21T13:30:06.974Z,2.15
2022-08-21T13:37:44.307Z,2.10
2022-08-21T13:45:26.116Z,2.03
2022-08-21T13:53:05.968Z,1.88
2022-08-21T14:00:48.469Z,2.25
2022-08-21T14:08:32.106Z,1.80
2022-08-21T14:16:14.370Z,2.00
2022-08-21T14:23:49.538Z,2.17
2022-08-21T14:31:30.401Z,2.42
2022-08-21T14:39:06.055Z,2.05
2022-08-21T14:46:54.143Z,1.90
2022-08-21T14:54:33.305Z,2.38
2022-08-21T15:02:08.310Z,1.95
2022-08-21T15:09:43.458Z,1.70
2022-08-21T15:17:17.655Z,2.47
2022-08-21T15:24:52.692Z,3.50
2022-08-21T15:32:30.300Z,2.13
2022-08-21T15:40:07.599Z,2.63
2022-08-21T15:47:46.468Z,1.98
2022-08-21T15:55:21.795Z,2.25
2022-08-21T16:02:59.224Z,1.83
2022-08-21T16:10:36.641Z,2.05
2022-08-21T16:18:11.274Z,3.28
2022-08-21T16:25:47.184Z,2.55
2022-08-21T16:33:24.979Z,3.10
2022-08-21T16:41:01.055Z,2.25
2022-08-21T16:48:34.951Z,2.55
2022-08-21T16:56:14.578Z,2.17
2022-08-21T17:03:51.464Z,2.38
2022-08-21T17:11:38.078Z,2.22
2022-08-21T17:19:14.040Z,2.30
2022-08-21T17:26:50.235Z,2.22
2022-08-21T17:34:24.759Z,2.13
2022-08-21T17:42:10.430Z,2.78
2022-08-21T17:49:44.264Z,1.90
2022-08-21T17:57:23.728Z,2.10
2022-08-21T18:04:58.008Z,2.38
2022-08-21T18:12:33.764Z,2.53
2022-08-21T18:20:09.251Z,2.78
2022-08-21T18:27:46.400Z,2.78
2022-08-21T18:35:20.659Z,2.50
2022-08-21T18:42:56.104Z,3.37
2022-08-21T18:50:30.438Z,2.65
2022-08-21T18:58:05.804Z,2.93
2022-08-21T19:05:43.328Z,22.98
2022-08-21T19:13:22.969Z,23.17
2022-08-21T19:20:57.675Z,19.73
2022-08-21T19:28:38.811Z,19.05
2022-08-21T19:36:12.939Z,14.07
2022-08-21T19:43:51.670Z,12.97
2022-08-21T19:51:25.791Z,13.20
2022-08-21T19:59:03.034Z,12.37
2022-08-21T20:06:40.353Z,8.90
2022-08-21T20:14:19.181Z,8.43
2022-08-21T20:21:52.977Z,9.18
2022-08-21T20:29:31.458Z,6.93
2022-08-21T20:37:11.065Z,6.53
2022-08-21T20:44:47.506Z,7.68
2022-08-21T20:52:23.667Z,5.43
2022-08-21T21:00:02.645Z,4.93
2022-08-21T21:07:39.662Z,5.53
2022-08-21T21:15:26.022Z,4.93
2022-08-21T21:23:12.168Z,4.18
2022-08-21T21:30:51.947Z,4.30
2022-08-21T21:46:25.610Z,4.45
2022-08-21T21:54:11.406Z,5.25
2022-08-21T22:01:50.342Z,5.45
2022-08-21T22:09:42.297Z,4.57
2022-08-21T22:17:33.903Z,4.30
2022-08-21T22:25:17.324Z,5.28
2022-08-21T22:32:52.597Z,5.32
2022-08-21T22:40:28.971Z,5.13
2022-08-21T22:56:07.553Z,4.60
2022-08-21T23:03:47.585Z,4.30
2022-08-21T23:11:25.195Z,4.22
2022-08-21T23:19:10.595Z,4.93
2022-08-21T23:26:57.263Z,5.78
2022-08-21T23:34:43.782Z,5.10
2022-08-21T23:42:32.719Z,4.43
2022-08-21T23:58:18.571Z,4.55
